createdAt,value
2018-05-10T00:04:34.723Z,17.88
2018-05-10T00:09:37.360Z,17.84
2018-05-10T00:14:39.871Z,17.82
2018-05-10T00:19:42.352Z,17.75
2018-05-10T00:24:44.837Z,17.67
2018-05-10T00:29:47.311Z,17.69
2018-05-10T00:34:49.775Z,17.62
2018-05-10T00:39:52.255Z,17.51
2018-05-10T00:44:54.713Z,17.47
2018-05-10T00:49:57.306Z,17.41
2018-05-10T00:54:59.854Z,17.23
2018-05-10T01:00:02.485Z,17.11
2018-05-10T01:05:05.114Z,17.02
2018-05-10T01:10:08.424Z,16.94
2018-05-10T01:15:10.906Z,16.92
2018-05-10T01:20:13.384Z,16.80
2018-05-10T01:25:15.875Z,16.88
2018-05-10T01:30:18.351Z,16.94
2018-05-10T01:35:32.653Z,16.93
2018-05-10T01:40:35.174Z,17.01
2018-05-10T01:45:37.768Z,17.05
2018-05-10T01:50:40.341Z,17.13
2018-05-10T01:55:42.873Z,17.16
2018-05-10T02:00:45.366Z,17.12
2018-05-10T02:05:47.833Z,16.98
2018-05-10T02:10:50.406Z,17.01
2018-05-10T02:15:52.874Z,17.06
2018-05-10T02:20:55.385Z,17.07
2018-05-10T02:25:58.053Z,17.10
2018-05-10T02:31:00.602Z,17.12
2018-05-10T02:36:03.182Z,17.18
2018-05-10T02:41:05.761Z,17.15
2018-05-10T02:46:08.272Z,17.22
2018-05-10T02:51:10.779Z,17.19
2018-05-10T02:56:13.293Z,17.27
2018-05-10T03:01:15.808Z,17.30
2018-05-10T03:06:18.301Z,17.29
2018-05-10T03:11:20.762Z,17.23
2018-05-10T03:16:23.231Z,17.19
2018-05-10T03:21:25.687Z,17.08
2018-05-10T03:26:28.173Z,16.84
2018-05-10T03:31:30.701Z,16.87
2018-05-10T03:36:33.353Z,16.81
2018-05-10T03:41:36.222Z,16.78
2018-05-10T03:46:38.770Z,16.74
2018-05-10T03:51:41.256Z,16.80
2018-05-10T03:56:44.704Z,16.73
2018-05-10T04:01:47.151Z,16.72
2018-05-10T04:07:01.360Z,16.69
2018-05-10T04:12:04.037Z,16.77
2018-05-10T04:17:07.234Z,16.79
2018-05-10T04:22:09.698Z,16.69
2018-05-10T04:27:12.213Z,16.65
2018-05-10T04:32:14.703Z,16.93
2018-05-10T04:37:17.209Z,19.41
2018-05-10T04:42:19.702Z,22.91
2018-05-10T04:47:22.206Z,21.58
2018-05-10T04:52:24.714Z,22.07
2018-05-10T04:57:27.215Z,25.21
2018-05-10T05:02:29.738Z,26.95
2018-05-10T05:07:32.323Z,24.45
2018-05-10T05:12:34.853Z,24.49
2018-05-10T05:17:37.360Z,23.60
2018-05-10T05:22:39.840Z,25.72
2018-05-10T05:27:42.349Z,24.66
2018-05-10T05:32:44.855Z,23.19
2018-05-10T05:37:47.467Z,21.11
2018-05-10T05:42:49.923Z,19.83
2018-05-10T05:47:52.454Z,19.38
2018-05-10T05:52:54.941Z,20.05
2018-05-10T05:57:57.428Z,23.88
2018-05-10T06:03:00.018Z,29.20
2018-05-10T06:08:02.694Z,32.07
2018-05-10T06:13:05.207Z,31.67
2018-05-10T06:18:07.708Z,32.04
2018-05-10T06:23:10.220Z,31.68
2018-05-10T06:28:12.702Z,32.29
2018-05-10T06:33:15.167Z,26.63
2018-05-10T06:38:17.665Z,24.03
2018-05-10T06:43:20.389Z,26.78
2018-05-10T06:48:22.885Z,30.57
2018-05-10T06:53:25.344Z,32.41
2018-05-10T06:58:28.780Z,32.26
2018-05-10T07:03:31.355Z,30.07
2018-05-10T07:08:33.962Z,27.16
2018-05-10T07:13:36.617Z,26.63
2018-05-10T07:18:39.101Z,26.07
2018-05-10T07:23:41.618Z,26.00
2018-05-10T07:28:44.133Z,28.17
2018-05-10T07:33:46.616Z,31.07
2018-05-10T07:38:50.523Z,31.46
2018-05-10T07:43:53.016Z,32.11
2018-05-10T07:48:55.496Z,33.78
2018-05-10T07:53:57.972Z,33.31
2018-05-10T07:59:00.585Z,33.12
2018-05-10T08:06:53.442Z,33.43
2018-05-10T08:14:18.626Z,34.23
2018-05-10T08:19:21.735Z,33.16
2018-05-10T08:24:24.272Z,34.42
2018-05-10T08:29:31.016Z,33.28
2018-05-10T08:34:33.532Z,33.56
2018-05-10T08:39:36.040Z,35.39
2018-05-10T08:44:38.524Z,33.89
2018-05-10T08:49:40.991Z,34.14
2018-05-10T08:54:43.467Z,34.62
2018-05-10T08:59:45.974Z,34.77
2018-05-10T09:04:48.469Z,35.98
2018-05-10T09:09:50.963Z,34.84
2018-05-10T09:14:53.481Z,31.82
2018-05-10T09:19:55.986Z,31.41
2018-05-10T09:24:59.448Z,33.53
2018-05-10T09:30:01.939Z,33.38
2018-05-10T09:35:04.441Z,34.11
2018-05-10T09:40:07.085Z,34.80
2018-05-10T09:45:09.549Z,34.03
2018-05-10T09:50:12.128Z,32.64
2018-05-10T09:55:14.606Z,32.82
2018-05-10T10:00:31.575Z,32.70
2018-05-10T10:05:34.066Z,31.80
2018-05-10T10:10:36.568Z,31.53
2018-05-10T10:15:39.110Z,31.98
2018-05-10T10:20:41.546Z,31.56
2018-05-10T10:25:44.015Z,31.59
2018-05-10T10:30:46.512Z,32.94
2018-05-10T10:35:49.013Z,31.57
2018-05-10T10:40:51.515Z,31.41
2018-05-10T10:45:53.981Z,32.36
2018-05-10T10:50:56.440Z,31.66
2018-05-10T10:55:58.922Z,31.14
2018-05-10T11:01:01.410Z,31.01
2018-05-10T11:06:03.917Z,31.37
2018-05-10T11:11:06.418Z,31.53
2018-05-10T11:16:08.914Z,31.40
2018-05-10T11:21:11.413Z,31.84
2018-05-10T11:26:14.870Z,30.71
2018-05-10T11:31:18.312Z,30.22
2018-05-10T11:36:20.804Z,30.69
2018-05-10T11:41:23.317Z,31.73
2018-05-10T11:46:25.836Z,30.85
2018-05-10T11:51:28.425Z,31.46
2018-05-10T11:56:30.957Z,30.74
2018-05-10T12:01:33.480Z,31.52
2018-05-10T12:06:35.972Z,31.65
2018-05-10T12:11:38.546Z,30.24
2018-05-10T12:16:41.013Z,31.14
2018-05-10T12:21:43.502Z,31.03
2018-05-10T12:26:46.013Z,30.57
2018-05-10T12:31:48.542Z,30.66
2018-05-10T12:36:51.057Z,30.93
2018-05-10T12:41:53.592Z,32.35
2018-05-10T12:46:56.085Z,32.41
2018-05-10T12:51:58.615Z,30.40
2018-05-10T12:57:01.126Z,30.41
2018-05-10T13:02:03.601Z,29.93
2018-05-10T13:07:06.075Z,30.29
2018-05-10T13:12:08.548Z,30.90
2018-05-10T13:17:11.093Z,30.65
2018-05-10T13:22:13.589Z,30.89
2018-05-10T13:27:16.127Z,30.39
2018-05-10T13:32:18.586Z,30.06
2018-05-10T13:37:21.092Z,30.18
2018-05-10T13:42:23.699Z,30.00
2018-05-10T13:47:26.299Z,30.02
2018-05-10T13:52:28.671Z,29.75
2018-05-10T13:57:31.191Z,29.58
2018-05-10T14:02:33.680Z,30.04
2018-05-10T14:07:36.145Z,30.55
2018-05-10T14:12:38.611Z,30.89
2018-05-10T14:17:41.185Z,30.49
2018-05-10T14:22:43.748Z,29.25
2018-05-10T14:27:46.228Z,28.47
2018-05-10T14:32:48.780Z,27.77
2018-05-10T14:37:51.286Z,27.13
2018-05-10T14:42:53.767Z,26.87
2018-05-10T14:47:56.250Z,26.55
2018-05-10T14:52:58.804Z,26.25
2018-05-10T14:58:01.314Z,26.07
2018-05-10T15:03:03.787Z,25.86
2018-05-10T15:08:06.278Z,25.82
2018-05-10T15:13:08.812Z,25.41
2018-05-10T15:18:11.288Z,25.23
2018-05-10T15:23:14.370Z,25.07
2018-05-10T15:28:17.158Z,24.77
2018-05-10T15:33:19.660Z,24.92
2018-05-10T15:38:22.133Z,24.83
2018-05-10T15:43:24.668Z,24.69
2018-05-10T15:48:27.185Z,24.21
2018-05-10T15:53:29.693Z,23.78
2018-05-10T15:58:32.191Z,23.51
2018-05-10T16:03:34.736Z,22.81
2018-05-10T16:08:37.312Z,22.38
2018-05-10T16:13:39.893Z,22.13
2018-05-10T16:18:42.445Z,21.96
2018-05-10T16:23:45.058Z,21.99
2018-05-10T16:28:55.308Z,22.08
2018-05-10T16:33:58.326Z,21.95
2018-05-10T16:39:00.860Z,21.65
2018-05-10T16:44:03.568Z,21.52
2018-05-10T16:49:06.077Z,21.35
2018-05-10T16:54:08.543Z,21.43
2018-05-10T16:59:11.034Z,21.73
2018-05-10T17:04:13.519Z,21.92
2018-05-10T17:09:16.011Z,22.20
2018-05-10T17:19:48.047Z,22.29
2018-05-10T17:25:01.782Z,22.00
2018-05-10T17:30:06.288Z,21.68
2018-05-10T17:35:09.939Z,21.70
2018-05-10T17:40:15.602Z,21.91
2018-05-10T17:45:18.911Z,22.02
2018-05-10T17:50:21.986Z,21.98
2018-05-10T17:55:25.093Z,21.91
2018-05-10T18:00:28.520Z,21.66
2018-05-10T18:05:51.328Z,21.46
2018-05-10T18:10:56.873Z,21.17
2018-05-10T18:15:59.444Z,21.00
2018-05-10T18:21:01.970Z,20.97
2018-05-10T18:26:04.503Z,20.86
2018-05-10T18:31:07.108Z,20.79
2018-05-10T18:36:10.589Z,20.64
2018-05-10T18:41:13.101Z,20.26
2018-05-10T18:46:15.586Z,20.06
2018-05-10T18:51:18.211Z,19.98
2018-05-10T18:56:21.303Z,19.87
2018-05-10T19:01:23.780Z,19.80
2018-05-10T19:06:28.204Z,19.68
2018-05-10T19:11:33.068Z,19.61
2018-05-10T19:16:37.020Z,19.44
2018-05-10T19:21:40.821Z,19.14
2018-05-10T19:26:55.132Z,18.86
2018-05-10T19:31:57.948Z,18.58
2018-05-10T19:37:00.685Z,18.38
2018-05-10T19:42:03.506Z,18.22
2018-05-10T19:47:06.261Z,18.07
2018-05-10T19:52:09.061Z,17.95
2018-05-10T19:57:11.585Z,18.03
2018-05-10T20:02:14.087Z,18.03
2018-05-10T20:07:16.576Z,18.05
2018-05-10T20:12:19.122Z,18.01
2018-05-10T20:17:21.527Z,17.94
2018-05-10T20:22:24.008Z,17.80
2018-05-10T20:27:30.743Z,17.81
2018-05-10T20:32:34.261Z,17.77
2018-05-10T20:37:38.161Z,17.68
2018-05-10T20:42:41.035Z,17.55
2018-05-10T20:47:43.530Z,17.54
2018-05-10T20:52:46.771Z,17.54
2018-05-10T20:57:49.256Z,17.47
2018-05-10T21:02:51.750Z,17.62
2018-05-10T21:07:54.338Z,17.38
2018-05-10T21:12:56.852Z,17.40
2018-05-10T21:17:59.372Z,17.16
2018-05-10T21:23:02.648Z,16.98
2018-05-10T21:28:05.247Z,16.85
2018-05-10T21:33:07.742Z,16.81
2018-05-10T21:38:10.227Z,16.70
2018-05-10T21:43:12.697Z,16.70
2018-05-10T21:48:15.164Z,16.69
2018-05-10T21:53:17.662Z,16.83
2018-05-10T21:58:20.195Z,16.92
2018-05-10T22:03:22.774Z,16.90
2018-05-10T22:08:25.253Z,16.88
2018-05-10T22:13:27.768Z,16.97
2018-05-10T22:18:30.257Z,16.95
2018-05-10T22:23:32.791Z,17.01
2018-05-10T22:28:35.396Z,16.81
2018-05-10T22:33:37.882Z,16.72
2018-05-10T22:38:40.410Z,16.68
2018-05-10T22:43:42.961Z,16.57
2018-05-10T22:48:45.444Z,16.55
2018-05-10T22:53:47.937Z,16.54
2018-05-10T22:58:50.400Z,16.50
2018-05-10T23:03:52.875Z,16.43
2018-05-10T23:08:55.447Z,16.29
2018-05-10T23:13:57.927Z,16.29
2018-05-10T23:19:00.399Z,16.31
2018-05-10T23:24:02.958Z,16.28
2018-05-10T23:29:05.456Z,16.29
2018-05-10T23:34:07.953Z,16.20
2018-05-10T23:39:10.459Z,16.02
2018-05-10T23:44:12.956Z,15.99
2018-05-10T23:49:15.581Z,16.02
2018-05-10T23:54:18.054Z,15.86
2018-05-10T23:59:20.546Z,15.47
